createdAt,value
2019-02-09T00:00:38.876Z,4.53
2019-02-09T00:04:43.426Z,4.42
2019-02-09T00:08:47.906Z,5.23
2019-02-09T00:12:52.554Z,3.52
2019-02-09T00:16:57.102Z,5.10
2019-02-09T00:21:01.667Z,3.58
2019-02-09T00:25:06.938Z,3.35
2019-02-09T00:29:11.435Z,4.78
2019-02-09T00:33:15.988Z,2.83
2019-02-09T00:37:20.527Z,4.03
2019-02-09T00:41:25.031Z,4.40
2019-02-09T00:45:29.775Z,6.60
2019-02-09T00:49:34.280Z,5.35
2019-02-09T00:53:38.827Z,5.00
2019-02-09T00:57:43.365Z,5.15
2019-02-09T01:01:47.947Z,3.37
2019-02-09T01:05:52.587Z,4.70
2019-02-09T01:09:57.095Z,6.75
2019-02-09T01:14:01.656Z,4.30
2019-02-09T01:18:06.391Z,4.15
2019-02-09T01:22:10.920Z,5.47
2019-02-09T01:26:15.486Z,4.55
2019-02-09T01:30:22.429Z,2.83
2019-02-09T01:34:26.943Z,4.37
2019-02-09T01:38:31.528Z,5.65
2019-02-09T01:42:36.071Z,6.12
2019-02-09T01:46:40.616Z,5.78
2019-02-09T01:50:45.123Z,5.53
2019-02-09T01:54:49.627Z,5.47
2019-02-09T01:58:54.252Z,4.17
2019-02-09T02:02:59.063Z,5.90
2019-02-09T02:07:03.600Z,6.00
2019-02-09T02:11:08.068Z,5.00
2019-02-09T02:15:15.459Z,5.83
2019-02-09T02:19:19.968Z,5.85
2019-02-09T02:23:24.571Z,6.03
2019-02-09T02:27:29.098Z,7.05
2019-02-09T02:31:33.614Z,3.97
2019-02-09T02:35:38.551Z,5.60
2019-02-09T02:39:43.069Z,5.50
2019-02-09T02:43:47.624Z,4.77
2019-02-09T02:47:52.271Z,4.20
2019-02-09T02:51:56.792Z,4.75
2019-02-09T02:56:01.402Z,4.47
2019-02-09T03:00:10.372Z,3.67
2019-02-09T03:04:14.907Z,4.53
2019-02-09T03:08:19.448Z,5.15
2019-02-09T03:12:23.968Z,6.83
2019-02-09T03:16:28.508Z,3.37
2019-02-09T03:20:33.049Z,3.80
2019-02-09T03:24:37.588Z,5.83
2019-02-09T03:28:42.129Z,3.87
2019-02-09T03:32:46.613Z,4.35
2019-02-09T03:36:51.186Z,3.27
2019-02-09T03:40:55.723Z,4.60
2019-02-09T03:45:00.263Z,3.27
2019-02-09T03:49:04.930Z,3.30
2019-02-09T03:53:09.530Z,2.90
2019-02-09T03:57:14.075Z,1.95
2019-02-09T04:01:19.853Z,3.08
2019-02-09T04:05:24.635Z,2.75
2019-02-09T04:09:29.155Z,3.20
2019-02-09T04:13:33.713Z,2.65
2019-02-09T04:17:38.257Z,2.47
2019-02-09T04:21:42.803Z,3.17
2019-02-09T04:25:47.318Z,2.95
2019-02-09T04:29:51.897Z,4.35
2019-02-09T04:33:56.482Z,2.58
2019-02-09T04:38:00.967Z,4.33
2019-02-09T04:42:05.535Z,3.42
2019-02-09T04:46:10.075Z,3.13
2019-02-09T04:50:15.082Z,2.17
2019-02-09T04:54:19.654Z,3.95
2019-02-09T04:58:24.149Z,3.25
2019-02-09T05:02:28.749Z,3.62
2019-02-09T05:06:33.293Z,2.17
2019-02-09T05:10:37.838Z,3.27
2019-02-09T05:14:42.474Z,2.17
2019-02-09T05:18:46.984Z,2.42
2019-02-09T05:22:51.816Z,2.55
2019-02-09T05:26:56.400Z,2.45
2019-02-09T05:31:00.933Z,2.58
2019-02-09T05:35:06.363Z,2.60
2019-02-09T05:39:10.861Z,4.30
2019-02-09T05:43:15.395Z,3.00
2019-02-09T05:47:19.947Z,3.40
2019-02-09T05:51:24.478Z,3.30
2019-02-09T05:55:29.013Z,3.17
2019-02-09T05:59:33.545Z,3.98
2019-02-09T06:03:38.080Z,4.70
2019-02-09T06:07:42.598Z,5.85
2019-02-09T06:11:47.123Z,4.87
2019-02-09T06:15:51.637Z,6.08
2019-02-09T06:19:56.120Z,4.67
2019-02-09T06:24:00.684Z,7.55
2019-02-09T06:28:05.331Z,6.33
2019-02-09T06:32:09.902Z,2.40
2019-02-09T06:36:14.424Z,4.12
2019-02-09T06:40:19.178Z,4.35
2019-02-09T06:44:23.724Z,3.35
2019-02-09T06:48:29.800Z,5.30
2019-02-09T06:52:34.341Z,9.28
2019-02-09T06:56:38.929Z,5.40
2019-02-09T07:00:43.563Z,5.55
2019-02-09T07:04:51.000Z,10.50
2019-02-09T07:08:55.645Z,7.62
2019-02-09T07:13:00.211Z,7.58
2019-02-09T07:17:04.874Z,6.55
2019-02-09T07:21:09.565Z,6.08
2019-02-09T07:25:14.392Z,8.68
2019-02-09T07:29:18.916Z,8.00
2019-02-09T07:33:23.488Z,9.00
2019-02-09T07:37:28.183Z,6.17
2019-02-09T07:41:32.639Z,6.80
2019-02-09T07:45:37.298Z,6.75
2019-02-09T07:49:41.827Z,8.73
2019-02-09T07:53:46.400Z,6.30
2019-02-09T07:57:50.955Z,6.67
2019-02-09T08:01:55.503Z,7.55
2019-02-09T08:06:00.059Z,10.95
2019-02-09T08:10:05.671Z,8.63
2019-02-09T08:14:10.208Z,7.78
2019-02-09T08:18:14.739Z,6.80
2019-02-09T08:22:19.307Z,7.00
2019-02-09T08:26:23.837Z,9.00
2019-02-09T08:30:37.148Z,9.93
2019-02-09T08:34:41.707Z,6.80
2019-02-09T08:38:46.277Z,10.45
2019-02-09T08:42:50.771Z,7.78
2019-02-09T08:46:55.341Z,9.63
2019-02-09T08:51:03.103Z,10.82
2019-02-09T08:55:07.683Z,6.30
2019-02-09T08:59:12.288Z,9.03
2019-02-09T09:03:16.947Z,6.85
2019-02-09T09:07:21.462Z,5.45
2019-02-09T09:11:26.040Z,8.60
2019-02-09T09:15:42.380Z,5.97
2019-02-09T09:19:46.960Z,8.75
2019-02-09T09:23:51.495Z,7.90
2019-02-09T09:27:56.107Z,8.68
2019-02-09T09:32:00.660Z,11.97
2019-02-09T09:36:06.136Z,8.63
2019-02-09T09:40:15.283Z,8.10
2019-02-09T09:44:19.791Z,9.50
2019-02-09T09:48:24.307Z,9.95
2019-02-09T09:52:28.836Z,10.43
2019-02-09T09:56:33.386Z,7.62
2019-02-09T10:00:37.968Z,11.15
2019-02-09T10:04:42.518Z,9.55
2019-02-09T10:08:47.046Z,11.73
2019-02-09T10:12:51.590Z,7.12
2019-02-09T10:16:56.164Z,10.10
2019-02-09T10:21:00.687Z,7.72
2019-02-09T10:25:05.740Z,9.43
2019-02-09T10:29:10.232Z,10.28
2019-02-09T10:33:14.782Z,9.55
2019-02-09T10:37:19.315Z,7.50
2019-02-09T10:41:23.860Z,9.45
2019-02-09T10:45:29.576Z,9.48
2019-02-09T10:49:34.094Z,9.90
2019-02-09T10:53:38.688Z,10.10
2019-02-09T10:57:44.078Z,9.40
2019-02-09T11:01:48.820Z,10.88
2019-02-09T11:05:53.377Z,8.18
2019-02-09T11:09:57.897Z,9.20
2019-02-09T11:14:02.463Z,10.45
2019-02-09T11:18:07.530Z,10.03
2019-02-09T11:22:12.064Z,7.97
2019-02-09T11:26:16.587Z,11.20
2019-02-09T11:30:22.724Z,9.20
2019-02-09T11:34:27.268Z,9.33
2019-02-09T11:38:31.929Z,14.83
2019-02-09T11:42:36.572Z,8.18
2019-02-09T11:46:41.095Z,13.65
2019-02-09T11:50:45.647Z,10.18
2019-02-09T11:54:50.188Z,27.40
2019-02-09T11:58:54.738Z,23.07
2019-02-09T12:03:03.958Z,18.57
2019-02-09T12:07:05.599Z,9.40
2019-02-09T12:11:10.190Z,10.55
2019-02-09T12:15:17.819Z,9.28
2019-02-09T12:19:22.373Z,11.73
2019-02-09T12:23:27.032Z,9.20
2019-02-09T12:27:31.554Z,9.88
2019-02-09T12:31:36.145Z,12.07
2019-02-09T12:35:40.705Z,11.45
2019-02-09T12:39:45.236Z,12.88
2019-02-09T12:43:49.783Z,11.48
2019-02-09T12:47:54.378Z,10.98
2019-02-09T12:51:58.929Z,10.80
2019-02-09T12:56:03.465Z,9.33
2019-02-09T13:00:12.458Z,10.43
2019-02-09T13:04:17.014Z,8.53
2019-02-09T13:08:21.522Z,11.33
2019-02-09T13:12:26.070Z,8.53
2019-02-09T13:16:30.612Z,9.88
2019-02-09T13:20:35.268Z,10.15
2019-02-09T13:24:39.811Z,10.00
2019-02-09T13:28:44.326Z,6.92
2019-02-09T13:32:48.953Z,6.27
2019-02-09T13:36:53.541Z,9.33
2019-02-09T13:40:58.111Z,8.53
2019-02-09T13:45:02.664Z,7.97
2019-02-09T13:49:07.161Z,11.10
2019-02-09T13:53:11.731Z,13.05
2019-02-09T13:57:16.291Z,11.90
2019-02-09T14:01:20.886Z,8.05
2019-02-09T14:05:25.379Z,10.80
2019-02-09T14:09:29.920Z,10.25
2019-02-09T14:13:34.491Z,9.58
2019-02-09T14:17:39.031Z,9.93
2019-02-09T14:21:43.563Z,9.88
2019-02-09T14:25:48.117Z,9.60
2019-02-09T14:29:52.615Z,8.73
2019-02-09T14:33:57.252Z,7.17
2019-02-09T14:38:02.571Z,9.10
2019-02-09T14:42:07.205Z,6.10
2019-02-09T14:46:11.767Z,9.30
2019-02-09T14:50:16.548Z,7.20
2019-02-09T14:54:21.116Z,5.37
2019-02-09T14:58:25.634Z,7.20
2019-02-09T15:02:30.294Z,10.10
2019-02-09T15:06:34.794Z,8.00
2019-02-09T15:10:39.347Z,8.55
2019-02-09T15:14:43.899Z,8.45
2019-02-09T15:18:48.450Z,10.15
2019-02-09T15:22:52.979Z,11.73
2019-02-09T15:26:57.477Z,9.83
2019-02-09T15:31:01.998Z,12.75
2019-02-09T15:35:08.691Z,10.65
2019-02-09T15:39:13.265Z,9.95
2019-02-09T15:43:17.804Z,10.43
2019-02-09T15:47:22.323Z,8.35
2019-02-09T15:51:26.860Z,8.15
2019-02-09T15:55:31.420Z,45.10
2019-02-09T15:59:36.015Z,12.28
2019-02-09T16:03:40.581Z,12.03
2019-02-09T16:07:45.105Z,12.65
2019-02-09T16:11:49.661Z,11.57
2019-02-09T16:15:54.230Z,9.93
2019-02-09T16:19:58.803Z,10.15
2019-02-09T16:24:03.311Z,11.70
2019-02-09T16:28:07.888Z,10.78
2019-02-09T16:32:12.420Z,9.23
2019-02-09T16:36:16.976Z,9.63
2019-02-09T16:40:26.132Z,9.77
2019-02-09T16:44:30.644Z,8.88
2019-02-09T16:48:35.231Z,10.00
2019-02-09T16:52:39.761Z,11.83
2019-02-09T16:56:44.287Z,11.47
2019-02-09T17:00:48.883Z,7.70
2019-02-09T17:04:53.378Z,6.67
2019-02-09T17:08:57.912Z,6.72
2019-02-09T17:13:02.521Z,7.63
2019-02-09T17:17:07.072Z,9.20
2019-02-09T17:21:11.599Z,7.80
2019-02-09T17:25:16.285Z,9.88
2019-02-09T17:29:20.834Z,7.92
2019-02-09T17:33:25.385Z,8.30
2019-02-09T17:37:29.951Z,7.92
2019-02-09T17:41:34.490Z,8.97
2019-02-09T17:45:48.744Z,9.50
2019-02-09T17:49:53.273Z,9.75
2019-02-09T17:53:57.811Z,7.35
2019-02-09T17:58:02.360Z,8.53
2019-02-09T18:02:06.955Z,11.60
2019-02-09T18:06:11.445Z,10.70
2019-02-09T18:10:17.474Z,13.78
2019-02-09T18:14:22.051Z,10.30
2019-02-09T18:18:26.583Z,12.07
2019-02-09T18:22:31.159Z,13.10
2019-02-09T18:26:35.643Z,9.65
2019-02-09T18:30:40.371Z,9.83
2019-02-09T18:34:44.927Z,9.63
2019-02-09T18:38:49.458Z,10.30
2019-02-09T18:42:54.160Z,10.82
2019-02-09T18:46:58.667Z,10.25
2019-02-09T18:51:03.203Z,14.65
2019-02-09T18:55:08.125Z,12.88
2019-02-09T18:59:12.713Z,12.55
2019-02-09T19:03:17.336Z,11.55
2019-02-09T19:07:21.822Z,10.48
2019-02-09T19:11:26.384Z,12.65
2019-02-09T19:15:30.935Z,12.80
2019-02-09T19:19:35.480Z,10.40
2019-02-09T19:23:40.050Z,13.53
2019-02-09T19:27:44.566Z,9.13
2019-02-09T19:31:49.138Z,14.63
2019-02-09T19:35:53.644Z,13.03
2019-02-09T19:39:58.191Z,10.23
2019-02-09T19:44:02.728Z,11.68
2019-02-09T19:48:07.765Z,12.60
2019-02-09T19:52:12.407Z,13.50
2019-02-09T19:56:16.967Z,10.18
2019-02-09T20:00:26.645Z,10.78
2019-02-09T20:04:34.543Z,10.88
2019-02-09T20:08:39.056Z,14.73
2019-02-09T20:12:43.623Z,9.78
2019-02-09T20:16:48.158Z,9.70
2019-02-09T20:20:52.698Z,11.40
2019-02-09T20:24:57.235Z,13.57
2019-02-09T20:29:02.648Z,11.12
2019-02-09T20:33:07.180Z,11.00
2019-02-09T20:37:11.724Z,10.82
2019-02-09T20:41:16.310Z,7.63
2019-02-09T20:45:20.891Z,11.85
2019-02-09T20:49:25.404Z,12.63
2019-02-09T20:53:29.943Z,11.25
2019-02-09T20:57:34.711Z,11.78
2019-02-09T21:01:39.304Z,10.20
2019-02-09T21:05:43.835Z,11.18
2019-02-09T21:09:48.348Z,10.00
2019-02-09T21:13:52.874Z,7.93
2019-02-09T21:17:57.419Z,9.80
2019-02-09T21:22:01.951Z,11.10
2019-02-09T21:26:06.519Z,9.85
2019-02-09T21:30:12.577Z,13.10
2019-02-09T21:34:17.124Z,13.90
2019-02-09T21:38:21.648Z,12.13
2019-02-09T21:42:26.200Z,13.00
2019-02-09T21:46:30.724Z,12.77
2019-02-09T21:50:36.469Z,11.93
2019-02-09T21:54:41.015Z,13.95
2019-02-09T21:58:45.591Z,11.50
2019-02-09T22:02:50.169Z,13.58
2019-02-09T22:06:54.680Z,14.60
2019-02-09T22:10:59.188Z,11.85
2019-02-09T22:15:04.133Z,13.03
2019-02-09T22:19:08.665Z,13.08
2019-02-09T22:23:13.195Z,10.53
2019-02-09T22:27:18.052Z,11.90
2019-02-09T22:31:22.548Z,13.60
2019-02-09T22:35:27.232Z,14.63
2019-02-09T22:39:31.810Z,13.30
2019-02-09T22:43:36.366Z,13.88
2019-02-09T22:47:40.905Z,13.83
2019-02-09T22:51:45.625Z,13.28
2019-02-09T22:55:50.180Z,11.97
2019-02-09T22:59:54.752Z,11.38
2019-02-09T23:04:28.460Z,11.70
2019-02-09T23:08:34.048Z,10.25
2019-02-09T23:12:38.719Z,11.73
2019-02-09T23:16:43.227Z,11.97
2019-02-09T23:20:47.778Z,13.15
2019-02-09T23:24:52.313Z,11.50
2019-02-09T23:28:56.855Z,14.58
2019-02-09T23:33:01.370Z,10.82
2019-02-09T23:37:05.899Z,12.18
2019-02-09T23:41:10.422Z,13.37
2019-02-09T23:45:14.989Z,14.47
2019-02-09T23:49:19.539Z,11.83
2019-02-09T23:53:24.179Z,12.80
2019-02-09T23:57:28.664Z,12.05
